createdAt,value
2018-06-08T00:00:56.813Z,16.89
2018-06-08T00:03:56.598Z,16.84
2018-06-08T00:06:32.303Z,16.80
2018-06-08T00:09:41.008Z,16.84
2018-06-08T00:12:20.159Z,16.84
2018-06-08T00:14:53.624Z,16.78
2018-06-08T00:17:24.922Z,16.79
2018-06-08T00:19:57.893Z,16.66
2018-06-08T00:22:54.927Z,16.59
2018-06-08T00:25:39.755Z,16.84
2018-06-08T00:28:13.469Z,16.69
2018-06-08T00:30:44.785Z,16.70
2018-06-08T00:33:15.975Z,16.59
2018-06-08T00:35:47.152Z,16.41
2018-06-08T00:38:39.810Z,16.51
2018-06-08T00:41:17.139Z,16.44
2018-06-08T00:43:48.295Z,16.43
2018-06-08T00:46:20.124Z,16.54
2018-06-08T00:48:51.662Z,16.48
2018-06-08T00:51:23.307Z,16.41
2018-06-08T00:53:54.552Z,16.28
2018-06-08T00:56:36.330Z,16.19
2018-06-08T00:59:07.612Z,16.08
2018-06-08T01:01:39.624Z,16.02
2018-06-08T01:04:10.769Z,16.05
2018-06-08T01:06:42.296Z,16.20
2018-06-08T01:09:13.376Z,16.30
2018-06-08T01:11:44.809Z,16.23
2018-06-08T01:14:15.895Z,16.15
2018-06-08T01:16:47.148Z,16.11
2018-06-08T01:19:18.263Z,16.19
2018-06-08T01:21:49.414Z,16.20
2018-06-08T01:24:20.508Z,16.11
2018-06-08T01:26:51.663Z,16.13
2018-06-08T01:29:22.931Z,16.06
2018-06-08T01:31:54.160Z,16.24
2018-06-08T01:34:25.321Z,16.16
2018-06-08T01:36:56.523Z,16.09
2018-06-08T01:39:27.916Z,16.09
2018-06-08T01:41:59.318Z,16.08
2018-06-08T01:45:04.326Z,15.99
2018-06-08T01:47:38.559Z,15.86
2018-06-08T01:50:19.944Z,16.00
2018-06-08T01:52:53.546Z,15.95
2018-06-08T01:55:24.875Z,15.94
2018-06-08T01:57:56.163Z,16.04
2018-06-08T02:00:28.058Z,16.33
2018-06-08T02:02:59.256Z,16.20
2018-06-08T02:05:30.972Z,16.05
2018-06-08T02:08:15.876Z,15.97
2018-06-08T02:10:47.924Z,16.03
2018-06-08T02:13:19.129Z,16.01
2018-06-08T02:15:50.306Z,15.98
2018-06-08T02:18:21.807Z,15.93
2018-06-08T02:20:52.980Z,16.05
2018-06-08T02:23:24.283Z,16.10
2018-06-08T02:25:55.312Z,16.05
2018-06-08T02:28:26.404Z,15.96
2018-06-08T02:30:57.859Z,15.91
2018-06-08T02:33:29.478Z,15.94
2018-06-08T02:36:00.687Z,15.92
2018-06-08T02:38:32.084Z,15.95
2018-06-08T02:41:03.497Z,15.88
2018-06-08T02:43:34.867Z,15.92
2018-06-08T02:46:06.013Z,15.93
2018-06-08T02:48:37.574Z,15.89
2018-06-08T02:51:08.787Z,15.83
2018-06-08T02:53:40.167Z,16.15
2018-06-08T02:56:11.308Z,16.06
2018-06-08T02:58:42.600Z,16.13
2018-06-08T03:01:13.885Z,16.05
2018-06-08T03:03:45.058Z,15.98
2018-06-08T03:06:16.101Z,15.89
2018-06-08T03:08:47.447Z,15.87
2018-06-08T03:11:18.478Z,15.83
2018-06-08T03:13:49.728Z,15.82
2018-06-08T03:16:21.015Z,16.23
2018-06-08T03:18:52.035Z,16.29
2018-06-08T03:21:22.999Z,16.16
2018-06-08T03:23:54.059Z,16.30
2018-06-08T03:26:25.263Z,16.20
2018-06-08T03:28:56.342Z,16.09
2018-06-08T03:31:27.909Z,16.15
2018-06-08T03:33:59.316Z,16.06
2018-06-08T03:36:30.967Z,15.90
2018-06-08T03:39:02.190Z,16.19
2018-06-08T03:41:33.615Z,16.16
2018-06-08T03:44:04.950Z,16.03
2018-06-08T03:46:36.208Z,16.06
2018-06-08T03:49:07.485Z,16.00
2018-06-08T03:51:38.750Z,15.80
2018-06-08T03:54:10.001Z,15.63
2018-06-08T03:56:41.260Z,15.71
2018-06-08T03:59:12.464Z,15.50
2018-06-08T04:01:43.748Z,15.63
2018-06-08T04:04:14.995Z,15.50
2018-06-08T04:06:46.305Z,15.34
2018-06-08T04:09:17.879Z,15.24
2018-06-08T04:11:49.167Z,15.16
2018-06-08T04:14:20.390Z,15.13
2018-06-08T04:16:51.567Z,15.13
2018-06-08T04:19:22.864Z,15.19
2018-06-08T04:21:54.217Z,15.15
2018-06-08T04:24:29.091Z,15.15
2018-06-08T04:27:01.557Z,15.13
2018-06-08T04:29:33.016Z,15.17
2018-06-08T04:32:05.522Z,15.23
2018-06-08T04:34:37.117Z,15.26
2018-06-08T04:37:08.472Z,15.37
2018-06-08T04:39:40.884Z,15.47
2018-06-08T04:42:12.274Z,15.52
2018-06-08T04:44:43.568Z,15.72
2018-06-08T04:47:17.277Z,15.86
2018-06-08T04:49:49.326Z,15.81
2018-06-08T04:52:20.611Z,15.81
2018-06-08T04:54:52.164Z,15.92
2018-06-08T04:57:27.892Z,16.00
2018-06-08T04:59:59.698Z,16.15
2018-06-08T05:02:31.122Z,16.20
2018-06-08T05:05:10.552Z,16.21
2018-06-08T05:07:42.930Z,16.20
2018-06-08T05:10:19.000Z,16.22
2018-06-08T05:12:50.075Z,16.29
2018-06-08T05:15:21.438Z,16.30
2018-06-08T05:17:53.392Z,16.36
2018-06-08T05:20:25.975Z,16.31
2018-06-08T05:22:57.598Z,16.27
2018-06-08T05:25:28.808Z,16.26
2018-06-08T05:28:00.014Z,16.24
2018-06-08T05:30:31.505Z,16.31
2018-06-08T05:33:02.691Z,16.40
2018-06-08T05:35:33.882Z,16.45
2018-06-08T05:38:05.205Z,16.54
2018-06-08T05:40:36.502Z,16.65
2018-06-08T05:43:07.829Z,16.77
2018-06-08T05:45:39.061Z,16.91
2018-06-08T05:48:10.301Z,17.17
2018-06-08T05:50:41.591Z,17.33
2018-06-08T05:53:12.975Z,17.45
2018-06-08T05:55:44.122Z,17.49
2018-06-08T05:58:15.389Z,17.55
2018-06-08T06:00:46.652Z,17.55
2018-06-08T06:03:17.774Z,17.63
2018-06-08T06:05:48.935Z,17.75
2018-06-08T06:08:19.875Z,17.77
2018-06-08T06:10:52.700Z,17.78
2018-06-08T06:13:24.395Z,17.82
2018-06-08T06:15:55.665Z,17.92
2018-06-08T06:18:27.342Z,18.03
2018-06-08T06:21:33.338Z,17.97
2018-06-08T06:24:27.470Z,17.95
2018-06-08T06:27:06.304Z,18.05
2018-06-08T06:29:37.593Z,17.93
2018-06-08T06:32:08.873Z,17.94
2018-06-08T06:34:40.034Z,17.83
2018-06-08T06:37:11.171Z,17.71
2018-06-08T06:39:42.461Z,17.67
2018-06-08T06:42:13.624Z,17.79
2018-06-08T06:44:45.078Z,17.82
2018-06-08T06:47:17.528Z,17.91
2018-06-08T06:49:49.679Z,17.98
2018-06-08T06:52:21.052Z,18.01
2018-06-08T06:54:52.258Z,18.05
2018-06-08T06:57:23.514Z,17.95
2018-06-08T06:59:54.793Z,17.98
2018-06-08T07:02:26.280Z,18.25
2018-06-08T07:04:57.710Z,18.55
2018-06-08T07:07:29.381Z,18.63
2018-06-08T07:10:00.694Z,18.53
2018-06-08T07:12:32.951Z,18.88
2018-06-08T07:15:04.185Z,19.11
2018-06-08T07:17:36.731Z,18.98
2018-06-08T07:20:07.984Z,19.07
2018-06-08T07:22:39.492Z,19.01
2018-06-08T07:25:10.694Z,19.05
2018-06-08T07:27:44.442Z,19.12
2018-06-08T07:30:18.219Z,19.27
2018-06-08T07:32:49.736Z,19.38
2018-06-08T07:35:21.136Z,19.56
2018-06-08T07:37:52.815Z,19.86
2018-06-08T07:40:24.448Z,19.96
2018-06-08T07:42:55.901Z,20.36
2018-06-08T07:45:27.832Z,20.83
2018-06-08T07:47:59.126Z,20.83
2018-06-08T07:50:41.157Z,21.15
2018-06-08T07:53:16.472Z,21.73
2018-06-08T07:58:49.959Z,22.95
2018-06-08T08:01:21.083Z,23.07
2018-06-08T08:03:52.195Z,23.58
2018-06-08T08:06:23.306Z,24.04
2018-06-08T08:08:54.741Z,23.55
2018-06-08T08:11:25.918Z,23.40
2018-06-08T08:13:57.101Z,23.53
2018-06-08T08:16:28.406Z,24.39
2018-06-08T08:18:59.515Z,24.77
2018-06-08T08:21:31.058Z,24.26
2018-06-08T08:24:02.336Z,23.76
2018-06-08T08:26:33.460Z,25.14
2018-06-08T08:29:04.914Z,25.86
2018-06-08T08:31:36.092Z,24.46
2018-06-08T08:34:07.395Z,24.87
2018-06-08T08:36:38.426Z,24.24
2018-06-08T08:39:10.402Z,25.51
2018-06-08T08:41:41.527Z,25.69
2018-06-08T08:44:12.827Z,25.50
2018-06-08T08:46:44.054Z,25.00
2018-06-08T08:49:15.179Z,25.32
2018-06-08T08:51:46.733Z,25.50
2018-06-08T08:54:18.105Z,25.95
2018-06-08T08:56:49.137Z,25.84
2018-06-08T08:59:20.661Z,25.55
2018-06-08T09:01:52.337Z,26.02
2018-06-08T09:04:23.840Z,26.11
2018-06-08T09:06:55.092Z,25.96
2018-06-08T09:09:26.292Z,25.57
2018-06-08T09:11:57.627Z,25.27
2018-06-08T09:14:29.155Z,25.45
2018-06-08T09:17:00.266Z,25.95
2018-06-08T09:19:31.927Z,25.60
2018-06-08T09:22:03.044Z,25.78
2018-06-08T09:24:34.362Z,27.03
2018-06-08T09:27:05.825Z,27.66
2018-06-08T09:29:36.914Z,27.37
2018-06-08T09:32:09.108Z,26.61
2018-06-08T09:34:40.215Z,27.72
2018-06-08T09:37:11.313Z,27.21
2018-06-08T09:39:42.516Z,27.01
2018-06-08T09:42:13.484Z,26.84
2018-06-08T09:44:45.191Z,26.42
2018-06-08T09:47:16.616Z,26.53
2018-06-08T09:49:47.751Z,26.82
2018-06-08T09:52:19.212Z,26.88
2018-06-08T09:54:50.527Z,26.36
2018-06-08T09:57:21.595Z,27.13
2018-06-08T09:59:52.729Z,27.40
2018-06-08T10:02:23.779Z,26.48
2018-06-08T10:04:55.299Z,27.28
2018-06-08T10:07:26.244Z,27.73
2018-06-08T10:09:57.407Z,28.36
2018-06-08T10:12:28.913Z,28.96
2018-06-08T10:14:59.940Z,28.86
2018-06-08T10:17:31.979Z,28.54
2018-06-08T10:20:03.399Z,27.56
2018-06-08T10:22:35.912Z,27.08
2018-06-08T10:25:06.965Z,26.73
2018-06-08T10:27:37.925Z,27.02
2018-06-08T10:30:09.033Z,26.98
2018-06-08T10:32:40.023Z,26.86
2018-06-08T10:35:12.001Z,26.05
2018-06-08T10:37:46.178Z,26.16
2018-06-08T10:40:28.291Z,27.18
2018-06-08T10:42:59.544Z,27.31
2018-06-08T10:45:31.279Z,27.88
2018-06-08T10:48:02.412Z,28.40
2018-06-08T10:50:33.481Z,29.11
2018-06-08T10:53:04.640Z,29.45
2018-06-08T10:55:35.704Z,29.98
2018-06-08T10:58:06.874Z,29.71
2018-06-08T11:00:39.367Z,29.42
2018-06-08T11:03:10.409Z,29.61
2018-06-08T11:05:41.620Z,29.98
2018-06-08T11:08:12.581Z,30.35
2018-06-08T11:10:43.605Z,29.79
2018-06-08T11:13:14.657Z,29.70
2018-06-08T11:15:45.750Z,29.64
2018-06-08T11:18:16.731Z,29.53
2018-06-08T11:20:48.185Z,29.20
2018-06-08T11:23:19.453Z,27.81
2018-06-08T11:25:50.622Z,28.72
2018-06-08T11:28:21.949Z,28.64
2018-06-08T11:30:53.180Z,29.13
2018-06-08T11:33:24.215Z,29.56
2018-06-08T11:35:55.536Z,29.28
2018-06-08T11:38:26.571Z,28.22
2018-06-08T11:40:57.646Z,28.07
2018-06-08T11:43:29.300Z,27.53
2018-06-08T11:46:00.504Z,27.95
2018-06-08T11:48:32.003Z,27.62
2018-06-08T11:51:03.044Z,27.27
2018-06-08T11:53:34.187Z,26.96
2018-06-08T11:56:05.359Z,27.08
2018-06-08T11:58:36.353Z,26.99
2018-06-08T12:01:07.312Z,26.99
2018-06-08T12:03:38.460Z,27.25
2018-06-08T12:06:09.606Z,27.07
2018-06-08T12:08:40.777Z,27.02
2018-06-08T12:11:11.928Z,27.17
2018-06-08T12:13:43.488Z,26.88
2018-06-08T12:16:14.541Z,26.16
2018-06-08T12:18:45.967Z,25.70
2018-06-08T12:21:17.510Z,25.27
2018-06-08T12:23:48.729Z,24.66
2018-06-08T12:26:22.731Z,24.29
2018-06-08T12:28:58.228Z,23.82
2018-06-08T12:31:30.416Z,23.23
2018-06-08T12:34:01.822Z,22.88
2018-06-08T12:36:33.075Z,22.76
2018-06-08T12:39:04.850Z,22.72
2018-06-08T12:41:36.637Z,22.88
2018-06-08T12:44:09.966Z,22.71
2018-06-08T12:46:41.279Z,22.84
2018-06-08T12:49:12.459Z,22.76
2018-06-08T12:51:43.436Z,23.20
2018-06-08T12:54:14.513Z,23.52
2018-06-08T12:56:45.757Z,23.17
2018-06-08T12:59:16.898Z,23.50
2018-06-08T13:01:48.025Z,24.09
2018-06-08T13:04:19.054Z,24.02
2018-06-08T13:06:50.230Z,23.43
2018-06-08T13:09:21.439Z,23.15
2018-06-08T13:11:52.612Z,23.19
2018-06-08T13:14:24.713Z,22.87
2018-06-08T13:16:55.728Z,22.51
2018-06-08T13:19:26.861Z,22.42
2018-06-08T13:21:58.097Z,22.23
2018-06-08T13:24:29.576Z,21.83
2018-06-08T13:27:01.469Z,21.54
2018-06-08T13:29:36.405Z,21.32
2018-06-08T13:32:07.805Z,21.04
2018-06-08T14:08:40.799Z,19.57
2018-06-08T14:11:14.033Z,18.65
2018-06-08T14:56:07.205Z,17.63
2018-06-08T15:01:48.260Z,18.36
2018-06-08T15:04:19.464Z,18.40
2018-06-08T15:06:50.814Z,18.44
2018-06-08T15:09:22.821Z,18.54
2018-06-08T15:11:55.039Z,18.55
2018-06-08T15:14:26.705Z,18.62
2018-06-08T15:16:58.361Z,18.59
2018-06-08T15:19:30.412Z,18.29
2018-06-08T15:22:01.694Z,18.22
2018-06-08T15:24:32.870Z,18.35
2018-06-08T15:27:04.330Z,18.57
2018-06-08T15:29:36.070Z,18.81
2018-06-08T15:32:07.718Z,19.15
2018-06-08T15:34:39.100Z,19.22
2018-06-08T15:37:10.709Z,19.34
2018-06-08T15:39:42.072Z,19.48
2018-06-08T15:42:13.484Z,19.53
2018-06-08T15:44:44.837Z,19.58
2018-06-08T15:47:16.034Z,19.55
2018-06-08T15:49:47.539Z,19.45
2018-06-08T15:52:18.900Z,19.47
2018-06-08T15:54:50.088Z,19.79
2018-06-08T15:57:21.503Z,19.92
2018-06-08T15:59:54.053Z,20.06
2018-06-08T16:02:25.816Z,20.08
2018-06-08T16:04:57.695Z,20.05
2018-06-08T16:07:28.951Z,19.96
2018-06-08T16:10:00.200Z,19.92
2018-06-08T16:12:31.541Z,20.02
2018-06-08T16:15:02.698Z,20.17
2018-06-08T16:17:33.968Z,20.22
2018-06-08T16:20:05.162Z,20.35
2018-06-08T16:22:37.352Z,20.44
2018-06-08T16:25:08.784Z,20.33
2018-06-08T16:27:39.960Z,20.45
2018-06-08T16:30:11.122Z,20.38
2018-06-08T16:32:42.287Z,20.35
2018-06-08T16:35:15.829Z,20.30
2018-06-08T16:37:47.071Z,20.37
2018-06-08T16:40:19.373Z,20.31
2018-06-08T16:42:51.691Z,20.21
2018-06-08T16:45:22.892Z,20.09
2018-06-08T16:47:54.051Z,20.03
2018-06-08T16:50:26.647Z,20.03
2018-06-08T16:52:58.282Z,20.04
2018-06-08T16:55:30.587Z,20.10
2018-06-08T16:58:01.982Z,20.09
2018-06-08T17:00:33.426Z,20.10
2018-06-08T17:03:04.688Z,20.10
2018-06-08T17:05:36.060Z,20.12
2018-06-08T17:08:07.189Z,20.11
2018-06-08T17:10:38.355Z,20.00
2018-06-08T17:13:09.631Z,19.88
2018-06-08T17:15:40.690Z,19.76
2018-06-08T17:18:12.220Z,19.70
2018-06-08T17:20:43.349Z,19.69
2018-06-08T17:23:14.573Z,19.67
2018-06-08T17:25:45.813Z,19.63
2018-06-08T17:28:17.260Z,19.60
2018-06-08T17:30:48.392Z,19.52
2018-06-08T17:33:19.738Z,19.61
2018-06-08T17:35:51.010Z,19.54
2018-06-08T18:51:33.925Z,18.18
2018-06-08T18:54:06.117Z,18.22
2018-06-08T18:56:38.144Z,18.20
2018-06-08T18:59:18.692Z,18.19
2018-06-08T19:01:51.014Z,18.19
2018-06-08T19:04:23.173Z,18.29
2018-06-08T19:06:55.216Z,18.23
2018-06-08T19:09:27.386Z,18.13
2018-06-08T19:13:04.636Z,18.00
2018-06-08T19:15:36.567Z,18.08
2018-06-08T19:18:08.662Z,17.97
2018-06-08T19:20:40.586Z,17.86
2018-06-08T19:23:12.572Z,17.81
2018-06-08T19:25:46.752Z,17.87
2018-06-08T19:28:18.938Z,17.82
2018-06-08T19:30:51.141Z,17.80
2018-06-08T19:33:23.068Z,17.83
2018-06-08T19:35:57.591Z,17.76
2018-06-08T19:38:29.700Z,17.63
2018-06-08T19:41:01.920Z,17.49
2018-06-08T19:43:34.598Z,17.43
2018-06-08T19:46:06.481Z,17.50
2018-06-08T19:48:39.330Z,17.46
2018-06-08T19:51:11.249Z,17.64
2018-06-08T19:53:43.396Z,17.62
2018-06-08T19:56:15.355Z,17.65
2018-06-08T19:58:47.245Z,17.64
2018-06-08T20:01:19.060Z,17.59
2018-06-08T20:03:52.080Z,17.50
2018-06-08T20:06:26.522Z,17.45
2018-06-08T20:12:26.724Z,17.64
2018-06-08T20:15:01.456Z,17.55
2018-06-08T20:17:33.023Z,17.45
2018-06-08T20:20:04.934Z,17.41
2018-06-08T20:22:37.331Z,17.57
2018-06-08T20:25:09.528Z,17.47
2018-06-08T20:27:41.409Z,17.30
2018-06-08T20:30:17.356Z,17.37
2018-06-08T20:32:49.373Z,17.25
2018-06-08T20:35:21.482Z,17.32
2018-06-08T20:37:53.184Z,17.24
2018-06-08T20:40:25.781Z,17.12
2018-06-08T20:42:58.254Z,17.04
2018-06-08T20:45:30.013Z,17.15
2018-06-08T20:48:02.055Z,17.12
2018-06-08T20:50:33.420Z,17.09
2018-06-08T20:53:11.936Z,17.11
2018-06-08T20:55:50.642Z,17.02
2018-06-08T20:58:23.389Z,17.03
2018-06-08T21:00:55.597Z,16.97
2018-06-08T21:03:27.420Z,17.03
2018-06-08T21:05:59.806Z,17.14
2018-06-08T21:08:31.654Z,17.11
2018-06-08T21:11:03.584Z,16.94
2018-06-08T21:13:35.478Z,16.80
2018-06-08T21:16:06.993Z,16.76
2018-06-08T21:18:38.285Z,16.82
2018-06-08T21:21:09.610Z,16.82
2018-06-08T21:23:41.304Z,17.05
2018-06-08T21:26:13.160Z,17.14
2018-06-08T21:28:44.912Z,17.23
2018-06-08T21:31:17.933Z,17.22
2018-06-08T21:33:49.862Z,17.19
2018-06-08T21:36:30.790Z,17.09
2018-06-08T21:39:02.506Z,17.13
2018-06-08T21:41:34.778Z,17.10
2018-06-08T21:44:06.758Z,17.08
2018-06-08T21:46:48.384Z,16.93
2018-06-08T21:49:22.987Z,16.83
2018-06-08T21:51:57.093Z,16.83
2018-06-08T21:54:30.356Z,16.76
2018-06-08T21:57:02.537Z,16.77
2018-06-08T21:59:34.540Z,16.84
2018-06-08T22:02:07.577Z,16.99
2018-06-08T22:04:39.456Z,16.90
2018-06-08T22:07:11.833Z,16.91
2018-06-08T22:09:44.667Z,16.91
2018-06-08T22:12:16.619Z,16.84
2018-06-08T22:15:04.523Z,16.78
2018-06-08T22:17:36.406Z,16.96
2018-06-08T22:20:08.537Z,17.14
2018-06-08T22:22:40.593Z,17.07
2018-06-08T22:25:14.728Z,16.92
2018-06-08T22:27:46.160Z,16.81
2018-06-08T22:30:20.194Z,16.60
2018-06-08T22:32:54.202Z,16.39
2018-06-08T22:35:26.263Z,16.34
2018-06-08T22:37:58.512Z,16.36
2018-06-08T22:40:30.280Z,16.42
2018-06-08T22:43:01.646Z,16.52
2018-06-08T22:45:33.741Z,16.55
2018-06-08T22:48:05.587Z,16.53
2018-06-08T22:50:44.656Z,16.96
2018-06-08T22:53:46.895Z,16.72
2018-06-08T22:56:19.096Z,16.54
2018-06-08T22:59:35.512Z,16.59
2018-06-08T23:03:26.062Z,16.62
2018-06-08T23:05:58.720Z,16.56
2018-06-08T23:08:30.887Z,16.48
2018-06-08T23:11:02.725Z,16.39
2018-06-08T23:13:34.842Z,16.35
2018-06-08T23:16:06.788Z,16.42
2018-06-08T23:18:38.096Z,16.57
2018-06-08T23:21:10.054Z,16.50
2018-06-08T23:23:41.771Z,16.38
2018-06-08T23:26:14.031Z,16.27
2018-06-08T23:28:45.996Z,16.29
2018-06-08T23:31:18.028Z,16.21
2018-06-08T23:33:50.150Z,16.23
2018-06-08T23:36:22.149Z,16.08
2018-06-08T23:38:59.388Z,16.02
2018-06-08T23:41:31.720Z,16.14
2018-06-08T23:44:04.748Z,16.18
2018-06-08T23:46:38.914Z,16.11
2018-06-08T23:49:11.856Z,16.07
2018-06-08T23:51:43.788Z,16.07
2018-06-08T23:54:15.713Z,16.10
2018-06-08T23:56:47.699Z,16.19
2018-06-08T23:59:22.238Z,16.36
